METAR Data
IDs: Format: Raw Decoded Include TAF

Data at: 1319 UTC 09 Dec 2019

K8A3 091315Z AUTO 21012G21KT 10SM OVC020 13/09 A2986 RMK A01
K8A3 091255Z AUTO 20013G18KT 10SM OVC021 12/08 A2986 RMK A01
K8A3 091235Z AUTO 21011KT 10SM OVC022 12/08 A2987 RMK A01
K8A3 091215Z AUTO 19008G15KT 10SM OVC022 12/08 A2987 RMK A01
K8A3 091155Z AUTO 20012KT 10SM OVC022 12/08 A2987 RMK A01
K8A3 091135Z AUTO 20012G20KT 10SM OVC023 12/08 A2988 RMK A01
K8A3 091115Z AUTO 20010G19KT 170V230 10SM OVC024 12/08 A2989 RMK A01
K8A3 091055Z AUTO 20008G15KT 170V230 10SM BKN026 BKN060 OVC075 12/08 A2989 RMK A01
K8A3 091035Z AUTO 20013KT 10SM BKN027 OVC075 12/08 A2989 RMK A01
K8A3 091015Z AUTO 19008G16KT 10SM OVC024 12/08 A2990 RMK A01
K8A3 090955Z AUTO 20008G16KT 10SM OVC025 12/08 A2991 RMK A01
K8A3 090935Z AUTO 20008G15KT 180V240 10SM OVC026 12/07 A2992 RMK A01
K8A3 090915Z AUTO 21009G18KT 10SM BKN026 OVC031 12/07 A2992 RMK A01
K8A3 090855Z AUTO 21008G18KT 10SM OVC027 12/07 A2993 RMK A01
K8A3 090835Z AUTO 21011G18KT 10SM OVC025 12/07 A2993 RMK A01
K8A3 090815Z AUTO 20008KT 10SM OVC024 12/07 A2994 RMK A01
K8A3 090755Z AUTO 19008G17KT 150V210 10SM OVC025 12/07 A2995 RMK A01
K8A3 090735Z AUTO 20009KT 10SM OVC025 12/06 A2995 RMK A01
K8A3 090715Z AUTO 21007G14KT 10SM OVC023 12/06 A2996 RMK A01
K8A3 090655Z AUTO 20010G18KT 170V230 10SM OVC023 12/06 A2997 RMK A01
K8A3 090635Z AUTO 20009G16KT 150V230 10SM OVC024 12/06 A2997 RMK A01
K8A3 090615Z AUTO 21012KT 180V250 10SM OVC027 12/06 A2998 RMK A01
K8A3 090555Z AUTO 20010G15KT 10SM BKN028 BKN037 OVC043 12/05 A2999 RMK A01
K8A3 090535Z AUTO 20011G16KT 10SM SCT035 BKN042 OVC049 12/05 A3000 RMK A01
K8A3 090515Z AUTO 20011G19KT 10SM FEW036 SCT050 BKN085 12/05 A3000 RMK A01
K8A3 090455Z AUTO 20012G21KT 10SM FEW031 SCT100 BKN120 12/05 A3000 RMK A01
K8A3 090435Z AUTO 20009G17KT 10SM SCT031 BKN095 BKN120 12/04 A3000 RMK A01
K8A3 090415Z AUTO 20010G17KT 10SM OVC030 12/04 A3001 RMK A01
K8A3 090355Z AUTO 20010KT 10SM BKN030 BKN038 OVC120 12/04 A3002 RMK A01
K8A3 090335Z AUTO 19008G15KT 10SM BKN030 BKN050 12/04 A3001 RMK A01
K8A3 090315Z AUTO 20009G15KT 10SM BKN032 12/04 A3002 RMK A01
K8A3 090255Z AUTO 20006G13KT 10SM BKN031 BKN042 12/04 A3002 RMK A01
K8A3 090235Z AUTO 19009G15KT 10SM CLR 12/04 A3002 RMK A01
K8A3 090215Z AUTO 20007KT 10SM SCT065 12/04 A3004 RMK A01
K8A3 090155Z AUTO 20008KT 10SM FEW035 SCT048 OVC065 12/04 A3004 RMK A01
K8A3 090135Z AUTO 19007KT 10SM FEW034 SCT040 BKN050 12/03 A3005 RMK A01
K8A3 090115Z AUTO 21006KT 10SM FEW034 BKN039 OVC070 12/03 A3006 RMK A01
K8A3 090055Z AUTO 20004G11KT 10SM BKN035 BKN045 OVC070 12/03 A3006 RMK A01
K8A3 090035Z AUTO 19005G12KT 10SM FEW037 FEW042 BKN050 12/03 A3006 RMK A01
K8A3 090015Z AUTO 19009KT 10SM SCT040 BKN050 BKN070 12/03 A3007 RMK A01
K8A3 082355Z AUTO 19006KT 10SM BKN041 OVC070 12/03 A3007 RMK A01
K8A3 082335Z AUTO 19006G11KT 10SM BKN037 BKN046 OVC070 12/03 A3007 RMK A01
K8A3 082315Z AUTO 20006G13KT 10SM BKN035 BKN041 OVC065 12/03 A3007 RMK A01
K8A3 082255Z AUTO 19008KT 10SM SCT035 SCT042 OVC065 12/03 A3008 RMK A01
K8A3 082235Z AUTO 19009G14KT 10SM SCT036 SCT042 OVC065 13/03 A3007 RMK A01
K8A3 082215Z AUTO 18007G14KT 160V220 10SM SCT036 BKN041 OVC065 13/03 A3007 RMK A01
K8A3 082155Z AUTO 19009KT 10SM FEW036 SCT041 BKN047 13/04 A3008 RMK A01
K8A3 082135Z AUTO 19007KT 10SM SCT036 SCT045 OVC065 13/04 A3009 RMK A01
K8A3 082115Z AUTO 19009G14KT 10SM BKN036 OVC065 14/04 A3009 RMK A01
K8A3 082055Z AUTO 20007G13KT 10SM BKN036 OVC050 14/04 A3009 RMK A01
K8A3 082035Z AUTO 20010G17KT 160V220 10SM BKN037 BKN050 BKN060 14/04 A3009 RMK A01
K8A3 082015Z AUTO 20008G15KT 10SM SCT037 SCT050 SCT060 15/04 A3009 RMK A01
K8A3 081955Z AUTO 20010G16KT 160V230 10SM SCT037 BKN047 BKN060 15/04 A3009 RMK A01
K8A3 081935Z AUTO 18009KT 170V240 10SM BKN038 OVC047 14/05 A3010 RMK A01
K8A3 081915Z AUTO 19010G15KT 160V220 10SM BKN039 BKN046 BKN055 14/05 A3010 RMK A01
K8A3 081855Z AUTO 19009G15KT 150V220 10SM BKN039 BKN045 BKN060 14/05 A3010 RMK A01
K8A3 081835Z AUTO 19011KT 10SM BKN040 BKN049 OVC060 14/04 A3012 RMK A01
K8A3 081815Z AUTO 18007G20KT 160V220 10SM FEW040 SCT048 OVC055 14/05 A3013 RMK A01
K8A3 081755Z AUTO 17014G19KT 150V210 10SM OVC055 14/04 A3014 RMK A01
K8A3 081735Z AUTO 19009G18KT 10SM OVC055 13/04 A3015 RMK A01
K8A3 081715Z AUTO 20012G18KT 10SM OVC055 14/05 A3016 RMK A01
K8A3 081655Z AUTO 20007G19KT 170V240 10SM BKN055 13/05 A3017 RMK A01
K8A3 081635Z AUTO 20009G19KT 10SM FEW040 SCT055 13/05 A3017 RMK A01
K8A3 081615Z AUTO 20011G19KT 170V230 10SM SCT050 13/04 A3019 RMK A01
K8A3 081555Z AUTO 19009G20KT 10SM BKN050 12/05 A3020 RMK A01
K8A3 081535Z AUTO 19008KT 160V240 10SM OVC050 12/05 A3021 RMK A01
K8A3 081515Z AUTO 20006KT 10SM OVC050 11/05 A3021 RMK A01
K8A3 081455Z AUTO VRB05G11KT 10SM OVC050 11/04 A3021 RMK A01
K8A3 081435Z AUTO 19007KT 160V220 10SM OVC050 10/05 A3021 RMK A01
K8A3 081415Z AUTO 21006KT 10SM OVC050 10/04 A3022 RMK A01
K8A3 081355Z AUTO 19006KT 10SM OVC050 09/04 A3022 RMK A01
K8A3 081335Z AUTO VRB04KT 10SM OVC050 09/04 A3022 RMK A01
K8A3 081315Z AUTO VRB03KT 10SM OVC049 09/04 A3022 RMK A01
K8A3 081255Z AUTO 20006KT 10SM OVC048 08/04 A3022 RMK A01
K8A3 081235Z AUTO 20007KT 10SM BKN046 08/04 A3021 RMK A01
K8A3 081215Z AUTO 22008KT 10SM FEW047 08/03 A3021 RMK A01
K8A3 081155Z AUTO 19006G11KT 10SM CLR 08/03 A3020 RMK A01
K8A3 081135Z AUTO 19006KT 10SM CLR 08/03 A3020 RMK A01
K8A3 081115Z AUTO 19006KT 10SM CLR 08/03 A3020 RMK A01
K8A3 081055Z AUTO 20004KT 10SM CLR 08/03 A3019 RMK A01
K8A3 081035Z AUTO 19005KT 10SM CLR 08/03 A3019 RMK A01
K8A3 081015Z AUTO 20004KT 10SM CLR 07/03 A3019 RMK A01
K8A3 080955Z AUTO 21005KT 10SM CLR 08/03 A3019 RMK A01
K8A3 080935Z AUTO 20005KT 10SM CLR 08/03 A3019 RMK A01
K8A3 080915Z AUTO 20004KT 10SM CLR 08/03 A3020 RMK A01
K8A3 080855Z AUTO 18004KT 10SM CLR 08/03 A3020 RMK A01
K8A3 080835Z AUTO 19006KT 10SM CLR 08/03 A3021 RMK A01
K8A3 080815Z AUTO 19004KT 10SM CLR 08/03 A3022 RMK A01
K8A3 080755Z AUTO 18004KT 10SM CLR 08/04 A3022 RMK A01
K8A3 080735Z AUTO 19006KT 10SM CLR 08/04 A3022 RMK A01
K8A3 080715Z AUTO 19006KT 10SM CLR 08/04 A3022 RMK A01
K8A3 080655Z AUTO 19005KT 10SM FEW038 08/04 A3022 RMK A01
K8A3 080635Z AUTO 19005KT 10SM FEW040 07/04 A3022 RMK A01
K8A3 080615Z AUTO 18005KT 10SM CLR 07/04 A3022 RMK A01
K8A3 080555Z AUTO 19004KT 10SM CLR 07/03 A3023 RMK A01
K8A3 080535Z AUTO 00000KT 10SM CLR 06/04 A3023 RMK A01
K8A3 080515Z AUTO 00000KT 10SM CLR 04/03 A3024 RMK A01
K8A3 080455Z AUTO 00000KT 10SM CLR 04/02 A3023 RMK A01
K8A3 080435Z AUTO 00000KT 10SM CLR 05/03 A3024 RMK A01
K8A3 080415Z AUTO 00000KT 10SM CLR 05/03 A3023 RMK A01
K8A3 080355Z AUTO 00000KT 10SM CLR 05/03 A3024 RMK A01
K8A3 080335Z AUTO 11004KT 10SM CLR 06/03 A3024 RMK A01
K8A3 080315Z AUTO 10003KT 10SM CLR 06/03 A3024 RMK A01
K8A3 080255Z AUTO 08003KT 10SM CLR 06/03 A3024 RMK A01
K8A3 080235Z AUTO 10005KT 10SM CLR 06/03 A3025 RMK A01
K8A3 080215Z AUTO 10004KT 10SM CLR 06/04 A3026 RMK A01
K8A3 080155Z AUTO 07004KT 10SM CLR 06/03 A3026 RMK A01
K8A3 080135Z AUTO 06004KT 10SM CLR 06/04 A3026 RMK A01